Time;durP1;ratioP1;P1;durP2;ratioP2;P2;SDS_P1;SDS_P2;PMS_P1;PMS_P2;Temp;Humidity;BMP_temperature;BMP_pressure;BME280_temperature;BME280_humidity;BME280_pressure;Samples;Min_cycle;Max_cycle;Signal;HPM_P1;HPM_P2
2020/12/26 00:01:16;;;;;;;26.35;13.73;;;0.70;99.90;;;;;;5007580;28;20129;-69
2020/12/26 00:03:43;;;;;;;23.50;12.57;;;0.60;99.90;;;;;;5010693;28;20050;-69
2020/12/26 00:06:17;;;;;;;34.08;13.55;;;0.50;99.90;;;;;;5012227;28;20156;-69
2020/12/26 00:08:44;;;;;;;22.13;11.60;;;0.50;99.90;;;;;;5001990;28;20510;-69
2020/12/26 00:11:12;;;;;;;18.27;11.20;;;0.40;99.90;;;;;;5011413;28;20080;-70
2020/12/26 00:13:39;;;;;;;24.77;13.13;;;0.40;99.90;;;;;;5003671;28;20046;-69
2020/12/26 00:16:12;;;;;;;23.60;12.85;;;0.30;99.90;;;;;;5006900;28;20564;-69
2020/12/26 00:18:39;;;;;;;26.85;12.73;;;0.20;99.90;;;;;;5005586;28;20540;-69
2020/12/26 00:21:08;;;;;;;35.20;12.00;;;0.20;99.90;;;;;;5011207;28;20518;-69
2020/12/26 00:23:34;;;;;;;21.58;11.60;;;0.20;99.90;;;;;;5011104;28;20511;-69
2020/12/26 00:26:01;;;;;;;21.33;10.27;;;0.20;99.90;;;;;;5010591;28;20103;-69
2020/12/26 00:28:28;;;;;;;18.27;9.43;;;0.40;99.90;;;;;;5009311;28;20193;-69
2020/12/26 00:30:54;;;;;;;20.90;8.38;;;0.50;99.90;;;;;;5010018;28;20128;-69
2020/12/26 00:33:20;;;;;;;17.42;8.43;;;0.60;99.90;;;;;;5012039;28;20080;-69
2020/12/26 00:35:47;;;;;;;16.67;8.95;;;0.60;99.90;;;;;;5011167;28;20070;-69
2020/12/26 00:38:13;;;;;;;18.98;8.88;;;0.60;99.90;;;;;;5010476;28;20081;-69
2020/12/26 00:40:40;;;;;;;30.90;14.48;;;0.60;99.90;;;;;;5005439;28;20057;-70
2020/12/26 00:43:06;;;;;;;27.38;10.48;;;0.50;99.90;;;;;;5010609;28;20200;-70
2020/12/26 00:45:32;;;;;;;15.00;8.30;;;0.50;99.90;;;;;;5010612;28;20125;-69
2020/12/26 00:47:59;;;;;;;21.35;10.80;;;0.60;99.90;;;;;;5007942;28;20192;-69
2020/12/26 00:50:26;;;;;;;25.70;9.70;;;0.70;99.90;;;;;;5009797;28;20503;-69
2020/12/26 00:52:52;;;;;;;19.90;9.43;;;0.70;99.90;;;;;;5012585;28;20137;-69
2020/12/26 00:55:18;;;;;;;22.45;10.95;;;0.80;99.90;;;;;;5012000;28;20422;-69
2020/12/26 00:57:45;;;;;;;19.73;9.30;;;0.80;99.90;;;;;;5011549;28;20112;-69
2020/12/26 01:00:11;;;;;;;16.77;7.18;;;0.70;99.90;;;;;;5010271;28;20049;-69
2020/12/26 01:02:38;;;;;;;15.98;6.82;;;0.70;99.90;;;;;;5012485;28;20136;-69
2020/12/26 01:05:05;;;;;;;16.70;7.13;;;0.90;99.90;;;;;;5011871;28;20053;-69
2020/12/26 01:07:31;;;;;;;15.05;6.75;;;0.90;99.90;;;;;;5011776;28;20049;-69
2020/12/26 01:09:58;;;;;;;12.77;7.25;;;0.90;99.90;;;;;;5012477;28;20078;-69
2020/12/26 01:12:24;;;;;;;18.08;9.70;;;0.80;99.90;;;;;;5012112;28;20042;-69
2020/12/26 01:14:50;;;;;;;17.50;7.75;;;0.70;99.90;;;;;;5009752;28;20107;-69
2020/12/26 01:17:16;;;;;;;17.80;8.30;;;0.60;99.90;;;;;;5011413;28;20125;-69
2020/12/26 01:19:56;;;;;;;15.00;8.32;;;0.50;99.90;;;;;;5011114;28;20080;-69
2020/12/26 01:22:22;;;;;;;19.90;9.88;;;0.40;99.90;;;;;;5010600;28;20184;-70
2020/12/26 01:24:48;;;;;;;19.00;8.75;;;0.40;99.90;;;;;;5011791;28;20129;-69
2020/12/26 01:27:15;;;;;;;17.65;7.90;;;0.30;99.90;;;;;;5010739;28;20511;-69
2020/12/26 01:29:45;;;;;;;11.88;6.47;;;0.30;99.90;;;;;;5011775;28;20053;-69
2020/12/26 01:32:11;;;;;;;20.88;7.53;;;0.30;99.90;;;;;;5008818;28;20453;-69
2020/12/26 01:34:38;;;;;;;23.20;9.77;;;0.30;99.90;;;;;;5010776;28;20073;-69
2020/12/26 01:37:05;;;;;;;12.90;6.65;;;0.10;99.90;;;;;;5010423;28;20121;-69
2020/12/26 01:39:31;;;;;;;14.23;6.97;;;0.10;99.90;;;;;;5009477;28;20447;-69
2020/12/26 01:41:57;;;;;;;10.68;5.65;;;0.00;99.90;;;;;;5010724;28;20085;-69
2020/12/26 01:44:24;;;;;;;23.92;9.00;;;0.00;99.90;;;;;;5012112;28;20590;-69
2020/12/26 01:46:51;;;;;;;19.95;6.07;;;-0.10;99.90;;;;;;5011064;28;20050;-69
2020/12/26 01:49:20;;;;;;;16.05;7.05;;;-0.20;99.90;;;;;;5009154;28;20132;-69
2020/12/26 01:51:47;;;;;;;17.50;6.95;;;-0.30;99.90;;;;;;5010659;28;20145;-69
2020/12/26 01:54:14;;;;;;;14.02;6.90;;;-0.30;99.90;;;;;;5010730;28;20084;-69
2020/12/26 01:56:41;;;;;;;16.95;8.60;;;-0.40;99.90;;;;;;5011145;28;20481;-69
2020/12/26 01:59:08;;;;;;;21.63;9.00;;;-0.50;99.90;;;;;;5010683;28;20133;-69
2020/12/26 02:01:41;;;;;;;24.88;11.48;;;-0.40;99.90;;;;;;5010180;28;20056;-69
2020/12/26 02:04:12;;;;;;;17.83;9.20;;;-0.40;99.90;;;;;;5008965;28;20460;-69
2020/12/26 02:06:48;;;;;;;21.30;9.05;;;-0.30;99.90;;;;;;4996481;28;20398;-69
2020/12/26 02:09:15;;;;;;;21.00;11.27;;;-0.40;99.90;;;;;;4993056;28;20128;-69
2020/12/26 02:11:42;;;;;;;25.70;11.50;;;-0.40;99.90;;;;;;5010692;28;20184;-69
2020/12/26 02:14:09;;;;;;;31.52;14.27;;;-0.40;99.90;;;;;;5008057;28;20125;-69
2020/12/26 02:16:47;;;;;;;33.08;12.95;;;-0.40;99.90;;;;;;5008097;28;20050;-69
2020/12/26 02:19:15;;;;;;;29.65;11.43;;;-0.40;99.90;;;;;;5009361;28;20140;-69
2020/12/26 02:21:42;;;;;;;23.90;9.43;;;-0.30;99.90;;;;;;5029900;28;20136;-69
2020/12/26 02:24:09;;;;;;;19.60;10.05;;;-0.30;99.90;;;;;;5014454;28;20046;-69
2020/12/26 02:26:36;;;;;;;16.88;9.05;;;-0.30;99.90;;;;;;5009909;28;20069;-69
2020/12/26 02:29:03;;;;;;;21.77;8.98;;;-0.20;99.90;;;;;;5020734;28;20136;-69
2020/12/26 02:31:30;;;;;;;21.50;8.50;;;-0.20;99.90;;;;;;5016370;28;20108;-69
2020/12/26 02:33:56;;;;;;;18.83;7.30;;;-0.20;99.90;;;;;;5014704;28;20041;-69
2020/12/26 02:36:23;;;;;;;20.48;7.53;;;-0.10;99.90;;;;;;5025047;28;20072;-69
2020/12/26 02:38:49;;;;;;;14.48;7.13;;;0.10;99.90;;;;;;5017755;28;20049;-69
2020/12/26 02:41:16;;;;;;;22.42;7.25;;;0.20;99.90;;;;;;5009627;28;20402;-69
2020/12/26 02:43:42;;;;;;;16.85;7.70;;;0.30;99.90;;;;;;5017539;28;20503;-69
2020/12/26 02:46:09;;;;;;;15.15;6.70;;;0.40;99.90;;;;;;5014264;28;20096;-70
2020/12/26 02:48:36;;;;;;;16.30;6.18;;;0.50;99.90;;;;;;5008051;28;20062;-69
2020/12/26 02:51:02;;;;;;;17.67;7.93;;;0.50;99.90;;;;;;5012826;28;20073;-69
2020/12/26 02:53:29;;;;;;;17.90;7.43;;;0.60;99.90;;;;;;5008804;28;20123;-69
2020/12/26 02:55:55;;;;;;;16.35;7.55;;;0.40;99.90;;;;;;5021190;28;20057;-69
2020/12/26 02:58:22;;;;;;;14.05;7.93;;;0.30;99.90;;;;;;5029855;28;20132;-70
2020/12/26 03:00:49;;;;;;;22.50;8.60;;;0.40;99.90;;;;;;5024919;28;20129;-69
2020/12/26 03:03:16;;;;;;;19.65;8.55;;;0.40;99.90;;;;;;5009977;28;20179;-69
2020/12/26 03:05:43;;;;;;;18.50;7.95;;;0.50;99.90;;;;;;5009175;28;20046;-69
2020/12/26 03:08:09;;;;;;;19.73;9.18;;;0.50;99.90;;;;;;5028090;28;20148;-69
2020/12/26 03:10:36;;;;;;;21.45;9.13;;;0.40;99.90;;;;;;5008398;28;20058;-69
2020/12/26 03:13:02;;;;;;;16.80;8.40;;;0.50;99.90;;;;;;5008346;28;20129;-69
2020/12/26 03:15:29;;;;;;;17.95;7.80;;;0.50;99.90;;;;;;5009782;28;20533;-69
2020/12/26 03:17:55;;;;;;;17.08;7.57;;;0.50;99.90;;;;;;5009321;28;20046;-69
2020/12/26 03:20:22;;;;;;;14.45;7.05;;;0.40;99.90;;;;;;5010280;28;20074;-69
2020/12/26 03:22:49;;;;;;;16.58;7.28;;;0.50;99.90;;;;;;5016380;28;20057;-69
2020/12/26 03:25:16;;;;;;;15.57;6.63;;;0.40;99.90;;;;;;5013575;28;20058;-69
2020/12/26 03:27:43;;;;;;;13.63;7.28;;;0.40;99.90;;;;;;5016270;28;20116;-69
2020/12/26 03:30:09;;;;;;;19.25;8.00;;;0.40;99.90;;;;;;5020012;28;20415;-69
2020/12/26 03:32:37;;;;;;;20.50;7.97;;;0.50;99.90;;;;;;5009186;28;20046;-69
2020/12/26 03:35:04;;;;;;;22.17;9.45;;;0.50;99.90;;;;;;5014199;28;20121;-69
2020/12/26 03:37:33;;;;;;;16.80;7.60;;;0.60;99.90;;;;;;5008596;28;20061;-69
2020/12/26 03:39:59;;;;;;;16.15;7.13;;;0.50;99.90;;;;;;5013085;28;20136;-69
2020/12/26 03:42:25;;;;;;;22.92;7.13;;;0.60;99.90;;;;;;5011525;28;20049;-69
2020/12/26 03:44:52;;;;;;;16.95;8.23;;;0.60;99.90;;;;;;5016544;28;20046;-70
2020/12/26 03:47:18;;;;;;;14.05;6.85;;;0.60;99.90;;;;;;5007282;28;20554;-69
2020/12/26 03:49:45;;;;;;;11.20;6.32;;;0.60;99.90;;;;;;5014903;28;20499;-69
2020/12/26 03:52:12;;;;;;;11.15;5.53;;;0.70;99.90;;;;;;5011391;28;20056;-69
2020/12/26 03:54:39;;;;;;;10.82;5.13;;;0.70;99.90;;;;;;5013904;28;20101;-69
2020/12/26 03:57:05;;;;;;;13.10;5.80;;;0.80;99.90;;;;;;5016506;28;20451;-69
2020/12/26 03:59:32;;;;;;;12.13;5.40;;;0.90;99.90;;;;;;5017255;28;20045;-69
2020/12/26 04:01:58;;;;;;;16.65;6.03;;;1.00;99.90;;;;;;5013515;28;20562;-69
2020/12/26 04:04:25;;;;;;;14.95;5.78;;;1.10;99.90;;;;;;5012980;28;20149;-69
2020/12/26 04:06:53;;;;;;;12.63;5.72;;;1.10;99.90;;;;;;5017846;28;20526;-70
2020/12/26 04:09:20;;;;;;;12.20;5.28;;;1.10;99.90;;;;;;5024367;28;20045;-69
2020/12/26 04:11:46;;;;;;;13.02;5.47;;;1.10;99.90;;;;;;5013075;28;20042;-69
2020/12/26 04:14:13;;;;;;;7.28;4.53;;;1.20;99.90;;;;;;5007817;28;20101;-69
2020/12/26 04:16:39;;;;;;;17.85;5.82;;;1.20;99.90;;;;;;5012362;28;20088;-69
2020/12/26 04:19:06;;;;;;;13.80;5.00;;;1.20;99.90;;;;;;5027159;28;20045;-69
2020/12/26 04:21:51;;;;;;;12.40;4.93;;;1.10;99.90;;;;;;5016684;28;20049;-69
2020/12/26 04:24:18;;;;;;;16.73;5.93;;;1.20;99.90;;;;;;5019234;28;20073;-69
2020/12/26 04:26:44;;;;;;;13.02;6.55;;;1.10;99.90;;;;;;5011968;28;20164;-69
2020/12/26 04:29:11;;;;;;;16.88;4.82;;;1.10;99.90;;;;;;5020577;28;20517;-69
2020/12/26 04:31:37;;;;;;;10.90;5.30;;;1.10;99.90;;;;;;5027502;28;20136;-69
2020/12/26 04:34:03;;;;;;;13.80;4.65;;;1.00;99.90;;;;;;5020215;28;20452;-69
2020/12/26 04:36:30;;;;;;;11.18;5.25;;;1.10;99.90;;;;;;5011454;28;20137;-69
2020/12/26 04:38:57;;;;;;;20.58;7.88;;;1.10;99.90;;;;;;5015809;28;20050;-69
2020/12/26 04:41:24;;;;;;;17.88;8.15;;;1.10;99.90;;;;;;5013424;28;20137;-69
2020/12/26 04:43:54;;;;;;;24.05;10.82;;;1.00;99.90;;;;;;5012565;28;20050;-69
2020/12/26 04:46:25;;;;;;;20.35;10.82;;;0.90;99.90;;;;;;5023755;28;20096;-69
2020/12/26 04:49:11;;;;;;;21.70;10.10;;;0.90;99.90;;;;;;5021099;28;20111;-69
2020/12/26 04:51:42;;;;;;;23.60;10.90;;;0.60;99.90;;;;;;5005743;28;20076;-70
2020/12/26 04:54:22;;;;;;;29.15;10.70;;;0.60;99.90;;;;;;5013876;28;20228;-70
2020/12/26 04:56:53;;;;;;;31.80;11.10;;;0.70;99.90;;;;;;5013334;28;20056;-69
2020/12/26 04:59:19;;;;;;;22.67;10.50;;;0.70;99.90;;;;;;5032597;28;20112;-69
2020/12/26 05:01:48;;;;;;;21.02;9.52;;;0.70;99.90;;;;;;5012305;28;20329;-69
2020/12/26 05:04:14;;;;;;;19.33;8.38;;;0.70;99.90;;;;;;4980294;28;20416;-69
2020/12/26 05:06:51;;;;;;;19.30;6.65;;;0.60;99.90;;;;;;5011027;28;20113;-69
2020/12/26 05:09:19;;;;;;;16.63;7.53;;;0.50;99.90;;;;;;5014693;28;20195;-69
2020/12/26 05:11:53;;;;;;;16.02;7.93;;;0.40;99.90;;;;;;5024254;28;20184;-69
2020/12/26 05:14:19;;;;;;;15.55;8.65;;;0.30;99.90;;;;;;5019362;28;20510;-69
2020/12/26 05:16:46;;;;;;;17.40;8.50;;;0.40;99.90;;;;;;5011313;28;20454;-69
2020/12/26 05:19:12;;;;;;;23.13;9.10;;;0.30;99.90;;;;;;5010895;28;20112;-69
2020/12/26 05:21:39;;;;;;;18.17;8.98;;;0.40;99.90;;;;;;5010488;28;20054;-69
2020/12/26 05:24:11;;;;;;;19.65;9.52;;;0.40;99.90;;;;;;5009472;28;20149;-69
2020/12/26 05:26:42;;;;;;;24.65;9.65;;;0.40;99.90;;;;;;5011338;28;20132;-69
2020/12/26 05:29:09;;;;;;;18.88;8.75;;;0.40;99.90;;;;;;5019722;28;20217;-69
2020/12/26 05:32:03;;;;;;;23.05;9.93;;;0.50;99.90;;;;;;5011021;28;20427;-69
2020/12/26 05:34:44;;;;;;;16.50;8.05;;;0.50;99.90;;;;;;4992496;28;20053;-69
2020/12/26 05:37:16;;;;;;;20.63;8.23;;;0.40;99.90;;;;;;5011923;28;20042;-69
2020/12/26 05:39:44;;;;;;;21.67;9.38;;;0.30;99.90;;;;;;5024513;28;20048;-69
2020/12/26 05:42:18;;;;;;;18.83;9.95;;;0.40;99.90;;;;;;5014567;28;20113;-69
2020/12/26 05:44:45;;;;;;;16.25;8.52;;;0.50;99.90;;;;;;5019352;28;20133;-69
2020/12/26 05:47:11;;;;;;;20.27;7.80;;;0.50;99.90;;;;;;5013057;28;20049;-69
2020/12/26 05:49:39;;;;;;;21.30;8.30;;;0.60;99.90;;;;;;5015978;28;20060;-71
2020/12/26 05:52:13;;;;;;;17.10;8.60;;;0.60;99.90;;;;;;5010380;28;20487;-69
2020/12/26 05:54:49;;;;;;;17.42;8.15;;;0.60;99.90;;;;;;5006704;28;20133;-69
2020/12/26 05:57:17;;;;;;;17.80;8.35;;;0.50;99.90;;;;;;5017001;28;20077;-69
2020/12/26 05:59:49;;;;;;;23.73;9.77;;;0.40;99.90;;;;;;5010479;28;20131;-69
2020/12/26 06:02:26;;;;;;;26.35;11.00;;;0.40;99.90;;;;;;5026195;28;20095;-69
2020/12/26 06:05:01;;;;;;;33.80;10.60;;;0.40;99.90;;;;;;5023267;28;20052;-69
2020/12/26 06:07:37;;;;;;;19.20;10.60;;;0.50;99.90;;;;;;5024248;28;20437;-69
2020/12/26 06:10:05;;;;;;;22.38;11.30;;;0.50;99.90;;;;;;5017612;28;20141;-69
2020/12/26 06:12:33;;;;;;;25.70;12.30;;;0.40;99.90;;;;;;5019161;28;20531;-69
2020/12/26 06:15:00;;;;;;;16.42;7.80;;;0.50;99.90;;;;;;5010696;28;20041;-69
2020/12/26 06:17:32;;;;;;;23.45;10.68;;;0.40;99.90;;;;;;5009215;28;20064;-69
2020/12/26 06:20:02;;;;;;;17.88;8.48;;;0.40;99.90;;;;;;5017364;28;20042;-69
2020/12/26 06:22:49;;;;;;;20.88;10.40;;;0.30;99.90;;;;;;5009340;28;20125;-69
2020/12/26 06:25:21;;;;;;;17.65;8.95;;;0.30;99.90;;;;;;5018565;28;20121;-69
2020/12/26 06:27:53;;;;;;;19.20;8.43;;;0.40;99.90;;;;;;5015283;28;20502;-69
2020/12/26 06:30:20;;;;;;;23.42;10.95;;;0.40;99.90;;;;;;5013820;28;20125;-69
2020/12/26 06:32:49;;;;;;;21.70;10.77;;;0.30;99.90;;;;;;5009911;28;20388;-69
2020/12/26 06:35:16;;;;;;;25.63;10.23;;;0.40;99.90;;;;;;5020984;28;20065;-69
2020/12/26 06:37:44;;;;;;;20.08;10.05;;;0.40;99.90;;;;;;5017278;28;20084;-69
2020/12/26 06:40:37;;;;;;;21.17;10.07;;;0.40;99.90;;;;;;5027019;28;20045;-69
2020/12/26 06:43:03;;;;;;;21.63;8.35;;;0.40;99.90;;;;;;5013350;28;20124;-69
2020/12/26 06:45:35;;;;;;;42.42;19.15;;;0.50;99.90;;;;;;5010225;28;20149;-69
2020/12/26 06:48:02;;;;;;;25.85;10.82;;;0.50;99.90;;;;;;5014026;28;20083;-69
2020/12/26 06:50:32;;;;;;;20.75;9.90;;;0.50;99.90;;;;;;5008869;28;20057;-69
2020/12/26 06:52:59;;;;;;;22.73;10.70;;;0.60;99.90;;;;;;5010103;28;20356;-69
2020/12/26 06:55:40;;;;;;;23.70;12.52;;;0.60;99.90;;;;;;5010188;28;20088;-69
2020/12/26 06:58:07;;;;;;;34.10;11.95;;;0.50;99.90;;;;;;5013560;28;20069;-70
2020/12/26 07:00:34;;;;;;;24.83;12.15;;;0.50;99.90;;;;;;5011438;28;20102;-70
2020/12/26 07:03:20;;;;;;;26.40;11.93;;;0.60;99.90;;;;;;5015808;28;20078;-69
2020/12/26 07:05:47;;;;;;;33.03;14.35;;;0.60;99.90;;;;;;5009847;28;20085;-69
2020/12/26 07:08:26;;;;;;;25.33;11.82;;;0.60;99.90;;;;;;5018672;28;20073;-69
2020/12/26 07:10:54;;;;;;;26.48;13.02;;;0.60;99.90;;;;;;5024155;28;20046;-69
2020/12/26 07:13:47;;;;;;;31.55;15.45;;;0.70;99.90;;;;;;5011502;28;20084;-69
2020/12/26 07:16:39;;;;;;;38.72;14.75;;;0.60;99.90;;;;;;5008880;28;20095;-69
2020/12/26 07:19:31;;;;;;;36.67;19.83;;;0.70;99.90;;;;;;5029930;28;20049;-69
2020/12/26 07:22:00;;;;;;;35.40;17.52;;;0.70;99.90;;;;;;5028022;28;20085;-69
2020/12/26 07:24:42;;;;;;;40.70;18.55;;;0.70;99.90;;;;;;5020472;28;20050;-69
2020/12/26 07:27:21;;;;;;;44.15;19.38;;;0.60;99.90;;;;;;5020311;28;20052;-69
2020/12/26 07:29:53;;;;;;;36.55;15.77;;;0.60;99.90;;;;;;5027854;28;20414;-69
2020/12/26 07:32:39;;;;;;;32.50;15.32;;;0.70;99.90;;;;;;5012452;28;20083;-69
2020/12/26 07:35:11;;;;;;;28.02;14.13;;;0.70;99.90;;;;;;5019999;28;20050;-70
2020/12/26 07:37:42;;;;;;;26.13;14.00;;;0.70;99.90;;;;;;5009407;28;20081;-69
2020/12/26 07:40:09;;;;;;;35.67;14.18;;;0.70;99.90;;;;;;5019809;28;20459;-69
2020/12/26 07:42:35;;;;;;;40.38;14.18;;;0.70;99.90;;;;;;5021036;28;20058;-69
2020/12/26 07:45:16;;;;;;;31.67;16.23;;;0.70;99.90;;;;;;5010430;28;20048;-69
2020/12/26 07:47:44;;;;;;;30.13;14.68;;;0.60;99.90;;;;;;5009287;28;20438;-69
2020/12/26 07:50:13;;;;;;;35.60;17.95;;;0.50;99.90;;;;;;5009836;28;20134;-69
2020/12/26 07:52:52;;;;;;;34.00;17.48;;;0.60;99.90;;;;;;5012354;28;20063;-69
2020/12/26 07:55:20;;;;;;;65.35;22.40;;;0.50;99.90;;;;;;5029691;28;20124;-69
2020/12/26 07:57:47;;;;;;;41.55;20.13;;;0.40;99.90;;;;;;5015498;28;20089;-69
2020/12/26 08:00:26;;;;;;;48.88;20.90;;;0.40;99.90;;;;;;5011607;28;20129;-70
2020/12/26 08:02:58;;;;;;;40.72;21.45;;;0.40;99.90;;;;;;4994333;28;20417;-69
2020/12/26 08:05:30;;;;;;;39.50;19.20;;;0.40;99.90;;;;;;5008409;28;20557;-69
2020/12/26 08:07:57;;;;;;;46.42;17.75;;;0.40;99.90;;;;;;5027530;28;20510;-69
2020/12/26 08:10:25;;;;;;;50.80;21.75;;;0.40;99.90;;;;;;5026170;28;20514;-69
2020/12/26 08:12:56;;;;;;;57.33;21.05;;;0.40;99.90;;;;;;5019729;28;20054;-70
2020/12/26 08:15:28;;;;;;;42.10;20.38;;;0.50;99.90;;;;;;5007959;28;20129;-69
2020/12/26 08:17:59;;;;;;;41.30;17.27;;;0.50;99.90;;;;;;5013194;28;20096;-70
2020/12/26 08:20:33;;;;;;;62.00;20.85;;;0.50;99.90;;;;;;5008839;28;20133;-69
2020/12/26 08:23:00;;;;;;;62.72;22.98;;;0.50;99.90;;;;;;5009834;28;20073;-69
2020/12/26 08:25:28;;;;;;;43.25;19.40;;;0.50;99.90;;;;;;5008246;28;20058;-69
2020/12/26 08:27:55;;;;;;;60.95;21.13;;;0.50;99.90;;;;;;5013260;28;20469;-69
2020/12/26 08:30:29;;;;;;;75.00;25.38;;;0.50;99.90;;;;;;5011553;28;20057;-69
2020/12/26 08:33:08;;;;;;;53.80;21.58;;;0.50;99.90;;;;;;5014421;28;20141;-69
2020/12/26 08:35:39;;;;;;;53.80;21.48;;;0.50;99.90;;;;;;5009383;28;20658;-69
2020/12/26 08:38:20;;;;;;;68.80;25.38;;;0.50;99.90;;;;;;5012850;28;20132;-69
2020/12/26 08:40:54;;;;;;;56.63;20.27;;;0.60;99.90;;;;;;5014563;28;20140;-69
2020/12/26 08:43:21;;;;;;;54.72;22.48;;;0.50;99.90;;;;;;5025561;28;20115;-69
2020/12/26 08:45:47;;;;;;;59.95;23.05;;;0.60;99.90;;;;;;5021895;28;20140;-69
2020/12/26 08:48:21;;;;;;;59.42;25.02;;;0.60;99.90;;;;;;5016389;28;20218;-69
2020/12/26 08:50:54;;;;;;;;;;;0.60;99.90;;;;;;5014818;28;20045;-69
2020/12/26 08:53:22;;;;;;;43.40;20.38;;;0.60;99.90;;;;;;5012446;28;19972;-69
2020/12/26 08:55:51;;;;;;;49.88;24.33;;;0.60;99.90;;;;;;5012284;28;20046;-69
2020/12/26 08:58:31;;;;;;;47.20;20.48;;;0.60;99.90;;;;;;5011967;28;20046;-69
2020/12/26 09:01:00;;;;;;;42.33;20.52;;;0.60;99.90;;;;;;5016179;28;21450;-69
2020/12/26 09:03:30;;;;;;;50.40;22.17;;;0.70;99.90;;;;;;5008886;28;20102;-69
2020/12/26 09:05:58;;;;;;;48.88;19.98;;;0.70;99.90;;;;;;5003633;28;20049;-69
2020/12/26 09:08:32;;;;;;;46.20;20.13;;;0.80;99.90;;;;;;5022298;28;20096;-69
2020/12/26 09:11:03;;;;;;;40.63;20.20;;;0.80;99.90;;;;;;5022389;28;20045;-69
2020/12/26 09:13:35;;;;;;;52.83;22.63;;;0.90;99.90;;;;;;5015051;28;20514;-69
2020/12/26 09:16:12;;;;;;;37.67;17.95;;;1.00;99.90;;;;;;5008458;28;20125;-69
2020/12/26 09:18:48;;;;;;;48.28;19.83;;;1.10;99.90;;;;;;5010016;28;20113;-69
2020/12/26 09:21:25;;;;;;;46.92;21.27;;;1.10;99.90;;;;;;5013840;28;20078;-69
2020/12/26 09:23:53;;;;;;;40.47;19.60;;;1.30;99.90;;;;;;5023120;28;20459;-69
2020/12/26 09:26:22;;;;;;;38.53;19.08;;;1.20;99.90;;;;;;5013518;28;20042;-69
2020/12/26 09:28:54;;;;;;;34.08;16.08;;;1.20;99.90;;;;;;5009470;28;20065;-69
2020/12/26 09:31:24;;;;;;;43.67;18.67;;;1.10;99.90;;;;;;5010729;28;20476;-69
2020/12/26 09:33:52;;;;;;;44.50;16.88;;;1.10;99.90;;;;;;5022453;28;20045;-69
2020/12/26 09:36:21;;;;;;;38.80;17.27;;;1.00;99.90;;;;;;5025276;28;20089;-69
2020/12/26 09:38:48;;;;;;;48.42;20.83;;;0.80;99.90;;;;;;5021057;28;20542;-69
2020/12/26 09:41:24;;;;;;;53.25;22.33;;;0.80;99.90;;;;;;5026603;28;20089;-69
2020/12/26 09:43:53;;;;;;;42.00;18.92;;;0.90;99.90;;;;;;5019718;28;20041;-69
2020/12/26 09:46:19;;;;;;;40.90;19.52;;;0.90;99.90;;;;;;5026557;28;20651;-69
2020/12/26 09:48:46;;;;;;;52.60;21.75;;;0.90;99.90;;;;;;5029200;28;20410;-70
2020/12/26 09:51:20;;;;;;;48.25;21.98;;;0.90;99.90;;;;;;5028604;28;20045;-70
2020/12/26 09:53:49;;;;;;;51.42;24.08;;;0.80;99.90;;;;;;5006572;28;20499;-69
2020/12/26 09:56:16;;;;;;;43.20;21.70;;;0.80;99.90;;;;;;5007434;28;20046;-69
2020/12/26 09:58:44;;;;;;;47.80;20.88;;;0.80;99.90;;;;;;5018059;28;20159;-69
2020/12/26 10:01:18;;;;;;;43.30;22.75;;;0.90;99.90;;;;;;5016820;28;20082;-69
2020/12/26 10:03:47;;;;;;;47.53;21.30;;;0.90;99.90;;;;;;5021797;28;20132;-69
2020/12/26 10:06:18;;;;;;;43.90;23.42;;;0.90;99.90;;;;;;5008161;28;20711;-69
2020/12/26 10:08:45;;;;;;;50.22;26.08;;;0.90;99.90;;;;;;5008924;28;20143;-69
2020/12/26 10:11:14;;;;;;;48.42;22.95;;;1.00;99.90;;;;;;5011135;28;20092;-69
2020/12/26 10:13:41;;;;;;;45.60;22.45;;;1.10;99.90;;;;;;5018721;28;20135;-69
2020/12/26 10:16:08;;;;;;;44.92;22.00;;;1.20;99.90;;;;;;5010676;28;20046;-69
2020/12/26 10:18:34;;;;;;;37.90;21.42;;;1.20;99.90;;;;;;5022058;28;20081;-69
2020/12/26 10:21:01;;;;;;;44.78;22.80;;;1.20;99.90;;;;;;5030616;28;20128;-69
2020/12/26 10:23:27;;;;;;;40.30;22.35;;;1.10;99.90;;;;;;5022806;28;20049;-69
2020/12/26 10:25:54;;;;;;;45.10;22.00;;;1.10;99.90;;;;;;5010839;28;20557;-68
2020/12/26 10:28:21;;;;;;;42.97;21.52;;;1.20;99.90;;;;;;5018811;28;20107;-69
2020/12/26 10:30:47;;;;;;;47.13;23.70;;;1.20;99.90;;;;;;5017767;28;20092;-69
2020/12/26 10:33:14;;;;;;;38.35;19.85;;;1.30;99.90;;;;;;5012484;28;20046;-69
2020/12/26 10:35:41;;;;;;;38.10;19.45;;;1.20;99.90;;;;;;5010395;28;20129;-68
2020/12/26 10:38:07;;;;;;;42.53;22.30;;;1.20;99.90;;;;;;5018019;28;20090;-69
2020/12/26 10:40:34;;;;;;;35.85;19.35;;;1.30;99.90;;;;;;5014794;28;20103;-69
2020/12/26 10:43:00;;;;;;;65.80;29.77;;;1.30;99.90;;;;;;5014904;28;20408;-69
2020/12/26 10:45:27;;;;;;;59.40;32.10;;;1.40;99.90;;;;;;5019427;28;20053;-69
2020/12/26 10:47:53;;;;;;;45.15;22.40;;;1.40;99.90;;;;;;5026072;28;20049;-68
2020/12/26 10:50:20;;;;;;;55.47;22.35;;;1.40;99.90;;;;;;5011631;28;20096;-69
2020/12/26 10:52:46;;;;;;;113.80;52.20;;;1.30;99.90;;;;;;5008460;28;20077;-69
2020/12/26 10:55:14;;;;;;;80.22;37.08;;;1.40;99.90;;;;;;5008816;28;20119;-69
2020/12/26 10:57:42;;;;;;;44.45;22.73;;;1.50;99.90;;;;;;5009035;28;20125;-69
2020/12/26 11:00:09;;;;;;;89.88;43.08;;;1.50;99.90;;;;;;5008639;28;20042;-69
2020/12/26 11:02:36;;;;;;;133.23;61.30;;;1.50;99.90;;;;;;5009726;28;20046;-68
2020/12/26 11:05:04;;;;;;;46.70;23.45;;;1.50;99.90;;;;;;5009009;28;20120;-69
2020/12/26 11:07:32;;;;;;;38.50;18.48;;;1.40;99.90;;;;;;5008615;28;20146;-69
2020/12/26 11:09:59;;;;;;;33.55;18.88;;;1.20;99.90;;;;;;5008943;28;20157;-69
2020/12/26 11:12:26;;;;;;;40.88;20.25;;;1.20;99.90;;;;;;5003489;28;20038;-69
2020/12/26 11:14:52;;;;;;;39.15;19.65;;;1.30;99.90;;;;;;5005924;28;20100;-69
2020/12/26 11:17:19;;;;;;;39.28;20.98;;;1.40;99.90;;;;;;5007145;28;20137;-68
2020/12/26 11:19:45;;;;;;;42.10;19.85;;;1.40;99.90;;;;;;5007291;28;20141;-68
2020/12/26 11:22:11;;;;;;;28.40;15.32;;;1.40;99.90;;;;;;5009032;28;20049;-69
2020/12/26 11:24:38;;;;;;;33.63;17.38;;;1.40;99.90;;;;;;5008653;28;20157;-68
2020/12/26 11:27:04;;;;;;;43.80;18.35;;;1.30;99.90;;;;;;5008411;28;20140;-69
2020/12/26 11:29:31;;;;;;;43.78;21.45;;;1.20;99.90;;;;;;5009010;28;20099;-69
2020/12/26 11:31:58;;;;;;;31.27;14.07;;;1.10;99.90;;;;;;5006340;28;20141;-69
2020/12/26 11:34:25;;;;;;;51.40;21.73;;;1.00;99.90;;;;;;5006018;28;20085;-69
2020/12/26 11:36:51;;;;;;;67.55;27.52;;;0.90;99.90;;;;;;5007877;28;20104;-68
2020/12/26 11:39:18;;;;;;;41.13;17.58;;;1.00;99.90;;;;;;5008859;28;20112;-68
2020/12/26 11:41:44;;;;;;;31.85;14.35;;;0.90;99.90;;;;;;5008050;28;20133;-69
2020/12/26 11:44:11;;;;;;;59.97;22.77;;;0.70;99.90;;;;;;4995005;28;20097;-68
2020/12/26 11:46:37;;;;;;;41.72;17.35;;;0.90;99.90;;;;;;5008204;28;20511;-69
2020/12/26 11:49:04;;;;;;;50.20;22.25;;;0.70;99.90;;;;;;5007511;28;20482;-68
2020/12/26 11:51:30;;;;;;;35.45;18.55;;;0.70;99.90;;;;;;5008785;28;20133;-69
2020/12/26 11:53:56;;;;;;;41.15;16.00;;;0.70;99.90;;;;;;5008740;28;20037;-68
2020/12/26 11:56:25;;;;;;;48.42;20.45;;;0.60;99.90;;;;;;5023302;28;20046;-69
2020/12/26 11:58:52;;;;;;;47.53;16.45;;;0.70;99.90;;;;;;5020710;28;20045;-68
2020/12/26 12:01:19;;;;;;;40.63;18.38;;;0.70;99.90;;;;;;5000816;28;20136;-68
2020/12/26 12:03:46;;;;;;;49.78;20.58;;;0.80;99.90;;;;;;5007601;28;20115;-68
2020/12/26 12:06:13;;;;;;;46.85;20.67;;;0.80;99.90;;;;;;5009242;28;20133;-69
2020/12/26 12:08:44;;;;;;;47.03;17.88;;;0.70;99.90;;;;;;5008120;28;20046;-68
2020/12/26 12:11:10;;;;;;;63.67;22.00;;;0.70;99.90;;;;;;5007981;28;20196;-69
2020/12/26 12:13:37;;;;;;;47.15;15.55;;;0.70;99.90;;;;;;5007968;28;20165;-69
2020/12/26 12:16:04;;;;;;;52.72;18.98;;;0.70;99.90;;;;;;5010003;28;20054;-69
2020/12/26 12:18:30;;;;;;;62.90;20.73;;;0.60;99.90;;;;;;5012437;28;20057;-69
2020/12/26 12:20:57;;;;;;;52.83;17.65;;;0.70;99.90;;;;;;5012234;28;20132;-70
2020/12/26 12:23:23;;;;;;;60.50;20.35;;;0.60;99.90;;;;;;5011942;28;20046;-69
2020/12/26 12:25:49;;;;;;;75.68;21.63;;;0.60;99.90;;;;;;5012412;28;20699;-69
2020/12/26 12:28:16;;;;;;;57.92;19.88;;;0.60;99.90;;;;;;5016008;28;20120;-69
2020/12/26 12:30:42;;;;;;;54.38;16.20;;;0.60;99.90;;;;;;5014826;28;20089;-68
2020/12/26 12:33:08;;;;;;;80.57;21.42;;;0.60;99.90;;;;;;5012271;28;20104;-68
2020/12/26 12:35:34;;;;;;;84.68;23.08;;;0.50;99.90;;;;;;5012080;28;20089;-69
2020/12/26 12:38:01;;;;;;;58.60;24.73;;;0.60;99.90;;;;;;5011145;28;20046;-69
2020/12/26 12:40:27;;;;;;;51.28;22.38;;;0.70;99.90;;;;;;5010954;28;20136;-69
2020/12/26 12:42:53;;;;;;;51.95;19.92;;;0.70;99.90;;;;;;5010385;28;20054;-69
2020/12/26 12:45:20;;;;;;;77.32;28.02;;;0.70;99.90;;;;;;5011885;28;20190;-69
2020/12/26 12:47:46;;;;;;;55.10;21.60;;;0.80;99.90;;;;;;5011458;28;20085;-69
2020/12/26 12:50:12;;;;;;;81.05;25.98;;;0.80;99.90;;;;;;5011767;28;20053;-69